Carolina, Rhode Island
Current Conditions -  °F | °C
As of 11:53 AM on Friday 24 Oct 2014 (Local Time) from KWST Reporting Station
Overcast Overcast  
Wind Chill: 54°   Ceiling: 1800
Heat Index: 54°   Visibility: 10mi
Dew Point: 46°   Wind: 10mph
Humidity: 75%   Direction: 330°NNW
Pressure: 29.73"   Gusts: 20mph
Location:  41.46°N, 71.66°W
Report Text: KWST 241553Z AUTO 33009G17KT 300V360 10SM OVC018 12/08 A2973 RMK AO2 SLP067 T01220078
Loading
Personal Weather Stations






























Interactive Weather Map
Tropical Storm Tracking
New forecast layout! Learn more

10-Day Weather Forecast

Advertisements
Track Severe Weather on mobile